Time;durP1;ratioP1;P1;durP2;ratioP2;P2;SDS_P1;SDS_P2;PMS_P1;PMS_P2;Temp;Humidity;BMP_temperature;BMP_pressure;BME280_temperature;BME280_humidity;BME280_pressure;Samples;Min_cycle;Max_cycle;Signal;HPM_P1;HPM_P2
2023/08/23 00:00:20;;;;;;;5.55;3.58;;;;;;;15.21;100.00;101189.59;698819;28;1277;-64
2023/08/23 00:00:40;;;;;;;5.70;3.57;;;;;;;15.23;100.00;101187.84;699852;28;1376;-65
2023/08/23 00:01:00;;;;;;;5.57;3.63;;;;;;;15.23;100.00;101190.47;695194;28;4724;-65
2023/08/23 00:01:21;;;;;;;4.60;3.63;;;;;;;15.22;100.00;101198.41;701588;28;1277;-65
2023/08/23 00:01:41;;;;;;;4.57;3.53;;;;;;;15.21;100.00;101188.75;702474;28;1425;-64
2023/08/23 00:02:01;;;;;;;5.53;3.83;;;;;;;15.20;100.00;101190.50;699711;28;1742;-65
2023/08/23 00:02:22;;;;;;;5.27;3.60;;;;;;;15.18;100.00;101188.78;701008;28;1311;-65
2023/08/23 00:02:42;;;;;;;5.60;3.42;;;;;;;15.17;100.00;101192.31;700442;28;1270;-65
2023/08/23 00:03:03;;;;;;;5.80;3.57;;;;;;;15.17;100.00;101182.63;699732;28;1284;-65
2023/08/23 00:03:23;;;;;;;6.53;3.75;;;;;;;15.14;100.00;101194.09;700116;28;1277;-66
2023/08/23 00:03:43;;;;;;;6.43;3.73;;;;;;;15.12;100.00;101188.00;702486;28;4369;-65
2023/08/23 00:04:04;;;;;;;5.87;3.60;;;;;;;15.13;100.00;101194.13;700654;28;2398;-65
2023/08/23 00:04:24;;;;;;;6.85;3.85;;;;;;;15.15;100.00;101194.97;702281;28;1245;-66
2023/08/23 00:04:44;;;;;;;6.93;3.90;;;;;;;15.15;100.00;101189.72;698738;28;1290;-65
2023/08/23 00:05:05;;;;;;;6.03;3.60;;;;;;;15.17;100.00;101194.94;697693;28;1207;-65
2023/08/23 00:05:26;;;;;;;6.65;3.65;;;;;;;15.18;100.00;101187.03;699293;28;1258;-66
2023/08/23 00:05:46;;;;;;;6.60;3.58;;;;;;;15.16;100.00;101186.19;702976;27;1324;-65
2023/08/23 00:06:06;;;;;;;6.37;3.60;;;;;;;15.16;100.00;101194.09;704502;27;1881;-65
2023/08/23 00:06:27;;;;;;;7.57;3.45;;;;;;;15.15;100.00;101195.84;705680;27;1291;-66
2023/08/23 00:06:48;;;;;;;6.20;3.70;;;;;;;15.13;100.00;101188.84;703719;27;4492;-66
2023/08/23 00:07:08;;;;;;;7.07;4.05;;;;;;;15.14;100.00;101190.59;702308;27;1755;-66
2023/08/23 00:07:29;;;;;;;6.32;3.80;;;;;;;15.13;100.00;101195.00;705646;27;1236;-65
2023/08/23 00:07:49;;;;;;;6.37;3.70;;;;;;;15.15;100.00;101194.97;704082;28;1335;-65
2023/08/23 00:08:10;;;;;;;6.07;3.80;;;;;;;15.15;100.00;101193.19;705107;27;1345;-65
2023/08/23 00:08:30;;;;;;;6.03;3.57;;;;;;;15.14;100.00;101190.59;704732;27;1225;-64
2023/08/23 00:08:50;;;;;;;7.40;3.80;;;;;;;15.13;100.00;101195.00;703545;27;1717;-65
2023/08/23 00:09:11;;;;;;;5.35;3.55;;;;;;;15.17;100.00;101194.94;704272;27;1224;-66
2023/08/23 00:09:31;;;;;;;6.40;3.70;;;;;;;15.17;100.00;101198.44;705327;27;1020;-65
2023/08/23 00:09:52;;;;;;;7.82;3.70;;;;;;;15.17;100.00;101195.81;702718;27;4417;-65
2023/08/23 00:10:12;;;;;;;6.60;3.77;;;;;;;15.20;100.00;101190.50;704650;27;1224;-66
2023/08/23 00:10:33;;;;;;;5.15;3.67;;;;;;;15.20;100.00;101187.84;705146;27;1277;-65
2023/08/23 00:10:54;;;;;;;5.07;3.53;;;;;;;15.22;100.00;101185.22;703953;27;1907;-66
2023/08/23 00:11:14;;;;;;;5.35;3.75;;;;;;;15.22;100.00;101195.75;704866;27;1037;-65
2023/08/23 00:11:35;;;;;;;5.60;3.70;;;;;;;15.21;100.00;101194.00;704289;27;1399;-66
2023/08/23 00:11:57;;;;;;;6.13;3.60;;;;;;;15.21;100.00;101184.34;702687;27;2338;-65
2023/08/23 00:12:18;;;;;;;5.72;3.55;;;;;;;15.19;100.00;101194.03;704440;27;1383;-65
2023/08/23 00:12:38;;;;;;;5.50;3.60;;;;;;;15.18;100.00;101189.66;703511;28;1292;-64
2023/08/23 00:12:59;;;;;;;5.70;3.80;;;;;;;15.17;100.00;101197.59;703892;27;4487;-65
2023/08/23 00:13:21;;;;;;;4.97;3.75;;;;;;;15.15;100.00;101192.34;702732;28;1261;-66
2023/08/23 00:13:41;;;;;;;6.22;3.80;;;;;;;15.15;100.00;101197.59;704217;27;1288;-66
2023/08/23 00:14:02;;;;;;;7.57;4.00;;;;;;;15.14;100.00;101201.13;702936;27;1839;-66
2023/08/23 00:14:23;;;;;;;6.20;3.92;;;;;;;15.13;100.00;101195.00;705343;27;1233;-66
2023/08/23 00:14:43;;;;;;;6.20;3.80;;;;;;;15.14;100.00;101190.59;700557;28;1353;-66
2023/08/23 00:15:04;;;;;;;6.10;3.90;;;;;;;15.12;100.00;101190.63;701429;28;1754;-64
2023/08/23 00:15:25;;;;;;;5.90;3.90;;;;;;;15.12;100.00;101197.66;697468;28;1286;-65
2023/08/23 00:15:45;;;;;;;5.22;3.85;;;;;;;15.13;100.00;101194.13;697745;28;4430;-66
2023/08/23 00:16:06;;;;;;;6.23;4.00;;;;;;;15.13;100.00;101192.38;697730;28;2445;-65
2023/08/23 00:16:26;;;;;;;6.40;3.97;;;;;;;15.14;100.00;101190.59;700207;27;3780;-65
2023/08/23 00:16:47;;;;;;;6.37;3.80;;;;;;;15.14;100.00;101190.59;704138;27;1281;-65
2023/08/23 00:17:07;;;;;;;6.40;3.97;;;;;;;15.14;100.00;101185.34;703008;28;1787;-65
2023/08/23 00:17:27;;;;;;;6.93;3.97;;;;;;;15.12;100.00;101182.72;705110;27;1264;-66
2023/08/23 00:17:48;;;;;;;5.13;3.77;;;;;;;15.14;100.00;101188.81;702374;28;1300;-65
2023/08/23 00:18:08;;;;;;;5.70;3.80;;;;;;;15.13;100.00;101191.47;702886;28;1739;-65
2023/08/23 00:18:28;;;;;;;5.57;3.70;;;;;;;15.10;100.00;101184.50;699862;28;1400;-66
2023/08/23 00:18:52;;;;;;;5.73;3.70;;;;;;;15.09;100.00;101192.41;701854;28;4456;-65
2023/08/23 00:19:12;;;;;;;5.47;3.88;;;;;;;15.07;100.00;101179.28;698395;28;1345;-66
2023/08/23 00:19:32;;;;;;;6.10;3.83;;;;;;;15.07;100.00;101181.06;698729;28;1293;-65
2023/08/23 00:19:54;;;;;;;8.93;4.35;;;;;;;15.06;100.00;101184.56;696407;28;2783;-65
2023/08/23 00:20:14;;;;;;;7.43;4.43;;;;;;;15.06;100.00;101184.56;700988;28;1261;-66
2023/08/23 00:20:35;;;;;;;6.13;4.25;;;;;;;15.02;100.00;101182.88;701173;28;1352;-65
2023/08/23 00:20:55;;;;;;;5.40;3.90;;;;;;;15.01;100.00;101182.03;700196;28;1965;-65
2023/08/23 00:21:15;;;;;;;5.43;3.80;;;;;;;14.98;100.00;101182.94;705934;27;1213;-65
2023/08/23 00:21:36;;;;;;;5.68;3.90;;;;;;;15.00;100.00;101180.28;703781;27;1391;-65
2023/08/23 00:21:56;;;;;;;5.40;3.90;;;;;;;15.01;100.00;101181.13;703435;27;4578;-65
2023/08/23 00:22:17;;;;;;;6.25;3.88;;;;;;;15.01;100.00;101181.13;703064;28;1307;-65
2023/08/23 00:22:37;;;;;;;6.47;4.30;;;;;;;15.01;100.00;101186.41;703708;28;1201;-64
2023/08/23 00:22:57;;;;;;;6.40;4.33;;;;;;;15.00;100.00;101182.91;703492;27;1533;-65
2023/08/23 00:23:18;;;;;;;6.88;4.10;;;;;;;15.01;100.00;101183.75;704157;27;1356;-65
2023/08/23 00:23:38;;;;;;;6.03;4.17;;;;;;;15.01;100.00;101184.66;703597;28;895;-65
2023/08/23 00:23:58;;;;;;;7.25;4.82;;;;;;;15.00;100.00;101189.94;702389;27;1465;-66
2023/08/23 00:24:19;;;;;;;7.50;4.07;;;;;;;15.02;100.00;101183.75;705541;27;1415;-65
2023/08/23 00:24:39;;;;;;;7.18;4.07;;;;;;;15.07;100.00;101184.56;702984;28;1224;-66
2023/08/23 00:25:00;;;;;;;7.00;3.90;;;;;;;15.08;100.00;101182.81;703424;27;4429;-66
2023/08/23 00:25:20;;;;;;;5.63;3.67;;;;;;;15.06;100.00;101177.53;704497;27;1303;-65
2023/08/23 00:25:41;;;;;;;4.93;3.60;;;;;;;15.06;100.00;101176.69;703851;28;1284;-65
2023/08/23 00:26:01;;;;;;;5.50;3.40;;;;;;;15.06;100.00;101179.31;703352;27;1180;-66
2023/08/23 00:26:21;;;;;;;4.97;3.50;;;;;;;15.05;100.00;101188.97;704530;27;1307;-66
2023/08/23 00:26:42;;;;;;;7.20;3.93;;;;;;;15.05;100.00;101188.09;704159;27;1004;-65
2023/08/23 00:27:02;;;;;;;6.30;3.87;;;;;;;15.05;100.00;101182.81;702654;27;1833;-66
2023/08/23 00:27:22;;;;;;;6.32;4.00;;;;;;;15.04;100.00;101178.47;701143;28;1379;-66
2023/08/23 00:27:43;;;;;;;7.07;3.80;;;;;;;15.02;100.00;101177.63;696167;28;4638;-66
2023/08/23 00:28:03;;;;;;;5.57;3.72;;;;;;;15.02;100.00;101178.47;694731;28;1766;-65
2023/08/23 00:28:25;;;;;;;6.20;3.90;;;;;;;15.02;100.00;101177.63;693878;28;1270;-65
2023/08/23 00:28:45;;;;;;;7.23;3.93;;;;;;;15.02;100.00;101182.88;693996;28;1290;-66
2023/08/23 00:29:06;;;;;;;6.73;4.10;;;;;;;15.01;100.00;101173.22;693280;28;1475;-65
2023/08/23 00:29:26;;;;;;;7.22;4.22;;;;;;;15.00;100.00;101187.31;697103;28;1223;-65
2023/08/23 00:29:46;;;;;;;6.03;4.20;;;;;;;15.00;100.00;101176.78;702022;28;1163;-65
2023/08/23 00:30:07;;;;;;;5.40;3.80;;;;;;;15.00;100.00;101176.78;697836;28;2602;-65
2023/08/23 00:30:28;;;;;;;5.18;4.00;;;;;;;14.98;100.00;101175.03;700209;28;1150;-65
2023/08/23 00:30:52;;;;;;;6.07;3.85;;;;;;;14.98;100.00;101172.41;698540;28;4356;-65
2023/08/23 00:31:13;;;;;;;5.80;3.90;;;;;;;14.97;100.00;101180.31;701054;28;1204;-64
2023/08/23 00:31:33;;;;;;;6.10;4.03;;;;;;;14.97;100.00;101181.19;697659;28;1439;-65
2023/08/23 00:31:53;;;;;;;6.07;4.00;;;;;;;14.96;100.00;101174.16;697357;28;1739;-65
2023/08/23 00:32:14;;;;;;;5.93;4.23;;;;;;;14.96;100.00;101175.94;698454;28;1270;-65
2023/08/23 00:32:34;;;;;;;6.43;4.07;;;;;;;14.95;100.00;101177.72;696399;28;1377;-64
2023/08/23 00:32:54;;;;;;;6.60;3.70;;;;;;;14.92;100.00;101175.09;698011;28;1421;-65
2023/08/23 00:33:16;;;;;;;5.68;3.80;;;;;;;14.90;100.00;101176.06;698377;28;1143;-65
2023/08/23 00:33:37;;;;;;;6.13;4.10;;;;;;;14.90;100.00;101169.00;697293;28;1292;-64
2023/08/23 00:33:57;;;;;;;7.13;4.17;;;;;;;14.92;100.00;101176.88;697276;28;4551;-65
2023/08/23 00:34:18;;;;;;;7.05;4.20;;;;;;;14.92;100.00;101174.25;702544;28;1510;-65
2023/08/23 00:34:39;;;;;;;6.90;3.90;;;;;;;14.88;100.00;101168.16;700451;28;1391;-65
2023/08/23 00:35:01;;;;;;;5.63;4.05;;;;;;;14.87;100.00;101179.59;699764;28;1472;-65
2023/08/23 00:35:22;;;;;;;5.57;4.07;;;;;;;14.86;100.00;101175.22;700652;28;1363;-65
2023/08/23 00:35:42;;;;;;;6.17;4.37;;;;;;;14.87;100.00;101176.97;697591;28;1361;-66
2023/08/23 00:36:03;;;;;;;6.03;4.00;;;;;;;14.86;100.00;101177.84;697695;28;1149;-65
2023/08/23 00:36:24;;;;;;;5.35;3.92;;;;;;;14.88;100.00;101180.44;698469;28;1289;-65
2023/08/23 00:36:45;;;;;;;7.43;4.20;;;;;;;14.90;100.00;101179.53;697631;28;4584;-65
2023/08/23 00:37:06;;;;;;;6.50;3.90;;;;;;;14.95;100.00;101182.97;698245;28;1793;-65
2023/08/23 00:37:27;;;;;;;5.70;4.00;;;;;;;14.91;100.00;101178.66;697051;28;1313;-65
2023/08/23 00:37:47;;;;;;;5.27;3.87;;;;;;;14.91;100.00;101175.13;698345;28;1277;-66
2023/08/23 00:38:07;;;;;;;5.80;4.00;;;;;;;14.94;100.00;101178.59;697575;28;2073;-65
2023/08/23 00:38:28;;;;;;;6.23;4.20;;;;;;;14.93;100.00;101176.84;695800;28;1259;-65
2023/08/23 00:38:48;;;;;;;5.30;3.97;;;;;;;14.92;100.00;101177.75;693006;28;5257;-65
2023/08/23 00:39:08;;;;;;;6.73;3.90;;;;;;;14.96;100.00;101178.56;695979;28;1878;-65
2023/08/23 00:39:29;;;;;;;7.00;4.13;;;;;;;14.95;100.00;101177.72;696385;28;1375;-64
2023/08/23 00:39:49;;;;;;;6.85;4.00;;;;;;;14.97;100.00;101169.78;698385;28;4302;-65
2023/08/23 00:40:11;;;;;;;5.93;3.97;;;;;;;14.97;100.00;101175.91;695747;28;1801;-63
2023/08/23 00:40:31;;;;;;;5.80;4.10;;;;;;;14.99;100.00;101170.63;698446;28;1393;-64
2023/08/23 00:40:52;;;;;;;5.90;3.90;;;;;;;14.98;100.00;101177.66;698886;28;2006;-66
2023/08/23 00:41:12;;;;;;;6.63;3.78;;;;;;;14.98;100.00;101172.41;699639;28;1372;-65
2023/08/23 00:41:33;;;;;;;6.43;4.10;;;;;;;14.97;100.00;101173.28;698061;28;1262;-65
2023/08/23 00:41:53;;;;;;;6.72;4.05;;;;;;;14.99;100.00;101173.25;696789;28;1748;-64
2023/08/23 00:42:13;;;;;;;6.87;4.10;;;;;;;14.98;100.00;101172.41;700196;28;1261;-65
2023/08/23 00:42:34;;;;;;;6.05;3.80;;;;;;;14.97;100.00;101170.66;700310;28;1440;-65
2023/08/23 00:42:55;;;;;;;5.93;3.72;;;;;;;14.96;100.00;101168.03;698512;28;4329;-66
2023/08/23 00:43:15;;;;;;;7.13;3.77;;;;;;;14.96;100.00;101171.53;703177;28;1305;-65
2023/08/23 00:43:36;;;;;;;7.85;3.88;;;;;;;15.01;100.00;101170.59;703371;27;1256;-66
2023/08/23 00:43:57;;;;;;;5.90;3.90;;;;;;;15.01;100.00;101171.50;703270;27;1466;-65
2023/08/23 00:44:17;;;;;;;6.43;4.27;;;;;;;14.97;100.00;101175.91;703462;27;1408;-65
2023/08/23 00:44:38;;;;;;;5.93;3.97;;;;;;;14.93;100.00;101176.84;703293;27;1507;-65
2023/08/23 00:44:58;;;;;;;7.63;3.87;;;;;;;14.91;100.00;101170.75;701839;27;1866;-65
2023/08/23 00:45:18;;;;;;;7.10;3.83;;;;;;;14.90;100.00;101176.91;706644;27;1432;-65
2023/08/23 00:45:41;;;;;;;6.20;4.00;;;;;;;14.91;100.00;101178.66;703697;28;3660;-65
2023/08/23 00:46:01;;;;;;;9.18;3.88;;;;;;;14.91;100.00;101178.66;702082;28;4843;-65
2023/08/23 00:46:23;;;;;;;9.63;4.00;;;;;;;14.91;100.00;101178.66;699556;28;1245;-65
2023/08/23 00:46:43;;;;;;;6.40;3.78;;;;;;;14.90;100.00;101183.94;697596;28;1289;-68
2023/08/23 00:47:04;;;;;;;7.47;4.53;;;;;;;14.88;100.00;101178.69;695719;28;1177;-66
2023/08/23 00:47:25;;;;;;;6.80;4.38;;;;;;;14.86;100.00;101176.97;695910;28;1301;-65
2023/08/23 00:47:45;;;;;;;6.83;4.40;;;;;;;14.84;100.00;101178.75;695485;28;1277;-65
2023/08/23 00:48:06;;;;;;;6.40;4.50;;;;;;;14.83;100.00;101177.91;694390;28;2366;-66
2023/08/23 00:48:27;;;;;;;7.22;4.57;;;;;;;14.81;100.00;101171.78;694859;28;2015;-65
2023/08/23 00:48:49;;;;;;;6.13;4.30;;;;;;;14.80;100.00;101178.81;695103;28;4590;-65
2023/08/23 00:49:09;;;;;;;5.50;4.00;;;;;;;14.86;100.00;101179.63;696314;28;1847;-66
2023/08/23 00:49:33;;;;;;;5.37;3.90;;;;;;;14.83;100.00;101175.25;697865;28;1332;-65
2023/08/23 00:49:57;;;;;;;6.63;4.30;;;;;;;14.80;100.00;101175.28;698801;28;2444;-65
2023/08/23 00:50:17;;;;;;;5.43;4.22;;;;;;;14.87;100.00;101174.31;701024;28;1464;-65
2023/08/23 00:50:40;;;;;;;6.20;4.00;;;;;;;14.92;100.00;101176.88;703384;28;1577;-65
2023/08/23 00:51:00;;;;;;;7.15;3.97;;;;;;;14.93;100.00;101174.22;701493;28;2447;-65
2023/08/23 00:51:21;;;;;;;7.17;4.20;;;;;;;14.90;100.00;101178.69;702268;28;1284;-65
2023/08/23 00:51:42;;;;;;;6.53;4.13;;;;;;;14.89;100.00;101183.06;699951;28;4283;-65
2023/08/23 00:52:04;;;;;;;6.80;4.03;;;;;;;14.86;100.00;101177.84;699888;28;2120;-65
2023/08/23 00:52:26;;;;;;;6.13;3.88;;;;;;;14.86;100.00;101176.97;696377;28;1424;-65
2023/08/23 00:52:48;;;;;;;5.95;3.90;;;;;;;14.85;100.00;101177.88;696707;28;1301;-66
2023/08/23 00:53:08;;;;;;;5.68;3.75;;;;;;;14.80;100.00;101177.91;692157;28;1480;-70
2023/08/23 00:53:29;;;;;;;5.80;4.07;;;;;;;14.76;100.00;101178.84;693572;28;1222;-65
2023/08/23 00:53:49;;;;;;;5.90;3.85;;;;;;;14.76;100.00;101181.47;696908;28;1636;-65
2023/08/23 00:54:11;;;;;;;6.47;4.07;;;;;;;14.78;100.00;101179.72;695103;28;2334;-65
2023/08/23 00:54:31;;;;;;;7.32;4.18;;;;;;;14.76;100.00;101179.75;698895;28;1258;-65
2023/08/23 00:54:53;;;;;;;6.60;3.92;;;;;;;14.76;100.00;101182.38;698050;28;4390;-65
2023/08/23 00:55:15;;;;;;;6.57;4.10;;;;;;;14.75;100.00;101180.63;701236;28;1187;-65
2023/08/23 00:55:36;;;;;;;6.18;4.20;;;;;;;14.75;100.00;101183.25;701427;28;1265;-65
2023/08/23 00:55:59;;;;;;;6.43;4.13;;;;;;;14.75;100.00;101182.41;702305;28;1804;-65
2023/08/23 00:56:20;;;;;;;7.07;4.20;;;;;;;14.73;100.00;101182.41;704562;27;1574;-65
2023/08/23 00:56:41;;;;;;;6.30;4.03;;;;;;;14.75;100.00;101182.41;702711;28;1352;-66
2023/08/23 00:57:01;;;;;;;4.93;4.10;;;;;;;14.78;100.00;101184.97;702748;27;1893;-64
2023/08/23 00:57:22;;;;;;;7.18;3.92;;;;;;;14.78;100.00;101184.97;702200;27;1111;-65
2023/08/23 00:57:43;;;;;;;7.00;3.90;;;;;;;14.78;100.00;101184.97;701351;28;4373;-66
2023/08/23 00:58:04;;;;;;;6.30;4.15;;;;;;;14.80;100.00;101183.19;698745;28;1805;-65
2023/08/23 00:58:25;;;;;;;5.88;4.13;;;;;;;14.79;100.00;101182.31;697399;28;1246;-65
2023/08/23 00:58:45;;;;;;;5.35;3.85;;;;;;;14.79;100.00;101182.31;699390;28;1258;-65
2023/08/23 00:59:07;;;;;;;6.03;4.20;;;;;;;14.79;100.00;101184.09;698246;28;1643;-66
2023/08/23 00:59:30;;;;;;;6.43;3.97;;;;;;;14.80;100.00;101181.44;696042;28;1360;-65
2023/08/23 00:59:50;;;;;;;7.30;4.13;;;;;;;14.85;100.00;101186.63;694059;28;1434;-65
2023/08/23 01:00:12;;;;;;;6.75;4.20;;;;;;;14.86;100.00;101184.88;700313;28;1786;-65
2023/08/23 01:00:33;;;;;;;7.30;4.15;;;;;;;14.86;100.00;101191.00;701621;28;1253;-66
2023/08/23 01:00:54;;;;;;;6.43;4.23;;;;;;;14.85;100.00;101189.25;696610;28;4303;-66
2023/08/23 01:01:14;;;;;;;6.88;4.03;;;;;;;14.87;100.00;101186.59;701721;28;1407;-65
2023/08/23 01:01:35;;;;;;;7.83;4.20;;;;;;;14.86;100.00;101182.25;703776;27;1289;-65
2023/08/23 01:01:55;;;;;;;6.38;4.10;;;;;;;14.83;100.00;101188.41;701864;27;1972;-66
2023/08/23 01:02:16;;;;;;;6.33;4.10;;;;;;;14.80;100.00;101189.34;702503;28;1435;-65
2023/08/23 01:02:36;;;;;;;5.87;4.03;;;;;;;14.78;100.00;101184.97;701367;28;1309;-66
2023/08/23 01:02:57;;;;;;;5.43;3.77;;;;;;;14.78;100.00;101185.84;699456;28;1452;-65
2023/08/23 01:03:20;;;;;;;5.63;4.03;;;;;;;14.77;100.00;101183.22;701615;28;1440;-65
2023/08/23 01:03:40;;;;;;;5.90;3.90;;;;;;;14.76;100.00;101186.75;697962;28;1284;-65
2023/08/23 01:04:03;;;;;;;7.00;4.20;;;;;;;14.72;100.00;101191.19;700231;28;4404;-65
2023/08/23 01:04:23;;;;;;;6.63;4.25;;;;;;;14.75;100.00;101182.41;705379;27;1382;-65
2023/08/23 01:04:44;;;;;;;6.90;4.03;;;;;;;14.75;100.00;101188.50;704130;28;1332;-65
2023/08/23 01:05:05;;;;;;;8.05;4.30;;;;;;;14.77;100.00;101180.59;700083;28;1487;-65
2023/08/23 01:06:00;;;;;;;7.45;4.22;;;;;;;14.71;100.00;101189.44;699292;28;1298;-65
2023/08/23 01:06:52;;;;;;;6.30;4.10;;;;;;;14.70;100.00;101181.56;692665;28;2108;-65
2023/08/23 01:07:16;;;;;;;6.68;3.92;;;;;;;14.68;100.00;101180.75;698508;28;6278;-65
2023/08/23 01:07:43;;;;;;;8.27;3.97;;;;;;;14.65;100.00;101184.28;701827;28;1276;-65
2023/08/23 01:08:31;;;;;;;5.97;3.83;;;;;;;14.70;100.00;101186.84;700742;28;2372;-65
2023/08/23 01:09:06;;;;;;;5.15;3.78;;;;;;;14.70;100.00;101192.97;699508;28;1242;-65
2023/08/23 01:09:57;;;;;;;6.20;3.88;;;;;;;14.69;100.00;101185.09;701863;28;1394;-66
2023/08/23 01:10:48;;;;;;;7.75;4.13;;;;;;;14.61;100.00;101186.03;699733;28;5934;-65
2023/08/23 01:11:24;;;;;;;7.38;4.13;;;;;;;14.59;100.00;101182.56;702459;27;1790;-65
2023/08/23 01:12:02;;;;;;;6.90;4.30;;;;;;;14.50;100.00;101184.47;703597;27;1265;-65
2023/08/23 01:12:29;;;;;;;6.68;3.95;;;;;;;14.48;100.00;101182.72;704176;27;1335;-66
2023/08/23 01:13:02;;;;;;;5.53;4.07;;;;;;;14.48;100.00;101187.06;703533;27;4532;-65
2023/08/23 01:13:33;;;;;;;6.30;4.32;;;;;;;14.47;100.00;101185.34;704170;28;1210;-65
2023/08/23 01:14:04;;;;;;;6.68;4.22;;;;;;;14.48;100.00;101184.44;700612;28;1579;-64
2023/08/23 01:15:03;;;;;;;5.80;4.03;;;;;;;14.49;100.00;101186.19;700295;28;1201;-65
2023/08/23 01:15:24;;;;;;;5.53;4.00;;;;;;;14.50;100.00;101187.09;702500;28;1271;-64
2023/08/23 01:15:45;;;;;;;6.03;3.95;;;;;;;14.48;100.00;101185.34;701608;28;4393;-64
2023/08/23 01:16:09;;;;;;;6.45;4.00;;;;;;;14.48;100.00;101187.06;702159;28;1805;-64
2023/08/23 01:16:32;;;;;;;7.78;4.32;;;;;;;14.48;100.00;101184.44;699638;28;1596;-64
2023/08/23 01:16:53;;;;;;;7.18;4.28;;;;;;;14.52;100.00;101182.66;697972;28;1276;-64
2023/08/23 01:17:15;;;;;;;7.13;4.25;;;;;;;14.55;100.00;101188.75;696915;28;1690;-64
2023/08/23 01:17:41;;;;;;;6.18;4.20;;;;;;;14.55;100.00;101187.88;696527;28;1969;-64
2023/08/23 01:18:02;;;;;;;6.25;4.40;;;;;;;14.56;100.00;101189.63;697354;28;2200;-64
2023/08/23 01:18:28;;;;;;;6.93;4.10;;;;;;;14.58;100.00;101177.31;700612;28;1153;-64
2023/08/23 01:18:49;;;;;;;9.73;4.15;;;;;;;14.55;100.00;101183.50;696620;28;4414;-64
2023/08/23 01:19:36;;;;;;;8.60;4.20;;;;;;;14.56;100.00;101179.97;697172;28;1526;-64
2023/08/23 01:19:58;;;;;;;8.00;4.40;;;;;;;14.59;100.00;101185.22;698451;28;1201;-64
2023/08/23 01:20:19;;;;;;;7.40;4.00;;;;;;;14.59;100.00;101179.94;701106;28;1246;-65
2023/08/23 01:20:40;;;;;;;6.13;4.18;;;;;;;14.62;100.00;101179.00;701584;28;1182;-65
2023/08/23 01:21:02;;;;;;;5.95;4.00;;;;;;;14.62;100.00;101179.00;702910;28;1945;-65
2023/08/23 01:21:31;;;;;;;6.57;4.32;;;;;;;14.62;100.00;101179.00;701069;28;1930;-64
2023/08/23 01:21:55;;;;;;;5.80;4.32;;;;;;;14.61;100.00;101178.16;704248;27;4426;-64
2023/08/23 01:22:18;;;;;;;6.07;4.10;;;;;;;14.58;100.00;101183.47;706525;27;1323;-64
2023/08/23 01:22:44;;;;;;;6.55;4.00;;;;;;;14.56;100.00;101190.47;706999;27;1176;-64
2023/08/23 01:23:07;;;;;;;5.63;3.85;;;;;;;14.54;100.00;101184.38;703689;27;2714;-64
2023/08/23 01:23:30;;;;;;;5.85;4.00;;;;;;;14.52;100.00;101186.16;707385;27;1366;-64
2023/08/23 01:23:51;;;;;;;6.30;4.20;;;;;;;14.51;100.00;101188.81;702764;27;1456;-64
2023/08/23 01:24:12;;;;;;;6.97;4.35;;;;;;;14.50;100.00;101189.72;702704;28;1805;-64
2023/08/23 01:24:33;;;;;;;7.07;4.30;;;;;;;14.50;100.00;101185.31;701171;28;1209;-64
2023/08/23 01:24:53;;;;;;;6.37;4.33;;;;;;;14.50;100.00;101187.94;703984;28;4532;-64
2023/08/23 01:25:17;;;;;;;7.32;4.30;;;;;;;14.50;100.00;101185.31;702257;28;1967;-64
2023/08/23 01:25:48;;;;;;;7.30;4.38;;;;;;;14.53;100.00;101187.91;704135;28;1135;-64
2023/08/23 01:26:09;;;;;;;6.10;4.25;;;;;;;14.54;100.00;101192.28;702828;27;2130;-64
2023/08/23 01:26:29;;;;;;;6.90;4.27;;;;;;;14.53;100.00;101185.25;708028;27;1367;-65
2023/08/23 01:26:49;;;;;;;5.68;4.10;;;;;;;14.52;100.00;101182.66;704030;27;1536;-64
2023/08/23 01:27:10;;;;;;;5.43;4.03;;;;;;;14.54;100.00;101186.13;701886;28;2299;-64
2023/08/23 01:27:32;;;;;;;5.95;4.35;;;;;;;14.55;100.00;101183.50;702578;28;1217;-64
2023/08/23 01:27:52;;;;;;;6.60;4.20;;;;;;;14.58;100.00;101182.56;703230;27;4511;-64
2023/08/23 01:28:13;;;;;;;5.50;4.30;;;;;;;14.59;100.00;101181.69;701262;28;1699;-65
2023/08/23 01:28:33;;;;;;;5.88;4.40;;;;;;;14.56;100.00;101177.31;702128;28;1260;-64
2023/08/23 01:28:54;;;;;;;7.00;4.30;;;;;;;14.54;100.00;101181.75;703418;28;1262;-64
2023/08/23 01:29:14;;;;;;;7.20;4.23;;;;;;;14.55;100.00;101183.50;701188;28;2661;-63
2023/08/23 01:29:34;;;;;;;6.23;3.87;;;;;;;14.53;100.00;101179.16;697361;28;1399;-64
2023/08/23 01:29:55;;;;;;;5.50;4.23;;;;;;;14.51;100.00;101181.81;696788;28;2060;-65
2023/08/23 01:30:17;;;;;;;5.63;4.23;;;;;;;14.52;100.00;101185.28;697264;28;1217;-64
2023/08/23 01:30:39;;;;;;;5.97;4.03;;;;;;;14.52;100.00;101177.41;694670;28;1159;-64
2023/08/23 01:31:03;;;;;;;7.20;4.20;;;;;;;14.53;100.00;101185.25;694406;28;4484;-64
2023/08/23 01:31:24;;;;;;;7.10;4.13;;;;;;;14.54;100.00;101181.75;700654;28;1383;-64
2023/08/23 01:31:47;;;;;;;5.85;4.20;;;;;;;14.53;100.00;101182.63;700635;28;1360;-64
2023/08/23 01:32:22;;;;;;;6.03;4.20;;;;;;;14.52;100.00;101180.88;697311;28;1777;-65
2023/08/23 01:32:53;;;;;;;5.22;4.07;;;;;;;14.54;100.00;101187.00;699187;28;1286;-64
2023/08/23 01:33:41;;;;;;;7.50;4.32;;;;;;;14.55;100.00;101180.88;700567;28;1385;-64
2023/08/23 01:34:20;;;;;;;6.07;4.05;;;;;;;14.51;100.00;101187.06;705182;27;4914;-64
2023/08/23 01:34:46;;;;;;;6.53;4.32;;;;;;;14.48;100.00;101182.72;707415;27;1443;-64
2023/08/23 01:35:32;;;;;;;7.40;3.97;;;;;;;14.50;100.00;101185.31;703063;27;2658;-65
2023/08/23 01:36:23;;;;;;;6.25;4.25;;;;;;;14.52;100.00;101177.41;702569;28;1297;-64
2023/08/23 01:36:44;;;;;;;6.10;4.40;;;;;;;14.53;100.00;101180.00;701802;28;4448;-64
2023/08/23 01:37:08;;;;;;;6.57;4.40;;;;;;;14.55;100.00;101177.34;702235;28;1516;-64
2023/08/23 01:37:30;;;;;;;7.43;4.38;;;;;;;14.54;100.00;101178.22;703248;28;1364;-65
2023/08/23 01:37:54;;;;;;;6.22;4.50;;;;;;;14.54;100.00;101179.13;702644;28;1316;-63
2023/08/23 01:38:17;;;;;;;6.78;4.20;;;;;;;14.53;100.00;101184.41;701473;28;2507;-64
2023/08/23 01:38:39;;;;;;;6.07;4.35;;;;;;;14.51;100.00;101181.81;701537;28;1383;-64
2023/08/23 01:39:00;;;;;;;5.93;4.43;;;;;;;14.50;100.00;101176.56;701833;28;5699;-64
2023/08/23 01:39:25;;;;;;;6.10;4.20;;;;;;;14.49;100.00;101178.31;703113;28;1406;-64
2023/08/23 01:39:46;;;;;;;6.00;4.30;;;;;;;14.48;100.00;101182.72;703229;28;5303;-65
2023/08/23 01:40:09;;;;;;;6.07;4.30;;;;;;;14.48;100.00;101182.72;699890;28;1966;-63
2023/08/23 01:40:30;;;;;;;7.00;4.30;;;;;;;14.47;100.00;101177.47;701519;28;1638;-64
2023/08/23 01:40:53;;;;;;;6.53;4.18;;;;;;;14.42;100.00;101177.50;702906;28;1921;-64
2023/08/23 01:41:14;;;;;;;7.05;4.40;;;;;;;14.40;100.00;101179.31;703318;27;1277;-64
2023/08/23 01:41:35;;;;;;;6.82;4.32;;;;;;;14.36;100.00;101177.59;701714;28;1375;-63
2023/08/23 01:41:56;;;;;;;8.00;4.50;;;;;;;14.33;100.00;101175.00;702375;28;1517;-64
2023/08/23 01:42:16;;;;;;;8.60;4.32;;;;;;;14.30;100.00;101173.28;703940;28;1273;-64
2023/08/23 01:42:38;;;;;;;6.37;4.03;;;;;;;14.29;100.00;101176.78;703776;28;1348;-64
2023/08/23 01:42:59;;;;;;;6.03;4.15;;;;;;;14.40;100.00;101175.78;696212;28;4429;-63
2023/08/23 01:43:19;;;;;;;6.67;3.97;;;;;;;14.39;100.00;101168.81;699099;28;1148;-64
2023/08/23 01:43:45;;;;;;;7.53;4.20;;;;;;;14.37;100.00;101170.56;700523;28;1336;-65
2023/08/23 01:44:05;;;;;;;7.88;4.18;;;;;;;14.33;100.00;101169.75;702394;28;2225;-64
2023/08/23 01:44:26;;;;;;;7.53;4.15;;;;;;;14.30;100.00;101173.28;704184;28;1410;-64
2023/08/23 01:44:46;;;;;;;7.30;4.47;;;;;;;14.31;100.00;101175.00;701558;28;1548;-64
2023/08/23 01:45:07;;;;;;;6.60;4.40;;;;;;;14.31;100.00;101169.75;701156;28;1531;-64
2023/08/23 01:45:28;;;;;;;7.35;4.47;;;;;;;14.35;100.00;101169.72;699727;28;1516;-63
2023/08/23 01:45:48;;;;;;;7.40;4.17;;;;;;;14.33;100.00;101163.59;699328;28;4324;-64
2023/08/23 01:46:09;;;;;;;7.07;4.25;;;;;;;14.35;100.00;101164.47;699714;28;1349;-64
2023/08/23 01:46:30;;;;;;;6.60;4.05;;;;;;;14.33;100.00;101158.34;697783;28;2057;-64
2023/08/23 01:46:50;;;;;;;7.33;4.23;;;;;;;14.31;100.00;101164.47;702587;28;1380;-64